Terminal Aerodrome Forecast
Issued by NWS

Home | Current Version | Previous Version | Text Only | Print | Product List | Glossary On
Versions: 1 2 3 4 5 6 7 8 9 10 11 12 13 14 15 16 17 18 19 20 21 22 23 24 25 26 27 28 29 30 31 32 33 34 35 36 37 38 39 40 41 42 43 44 45 46 47 48 49 50
000
FTUS41 KCTP 252338
TAFLNS
TAF
KLNS 252338Z 2600/2624 02006KT P6SM VCSH SCT025 BKN040
      TEMPO 2600/2602 3SM TSRA OVC025CB
     FM260200 24003KT 5SM -SHRA BKN020 OVC035
     FM260300 30003KT 3SM -SHRA BR OVC007
     FM260900 28006KT P6SM BKN050=

USA.gov is the U.S. government's official web portal to all federal, state and local government web resources and services.